Time;durP1;ratioP1;P1;durP2;ratioP2;P2;SDS_P1;SDS_P2;PMS_P1;PMS_P2;Temp;Humidity;BMP_temperature;BMP_pressure;BME280_temperature;BME280_humidity;BME280_pressure;Samples;Min_cycle;Max_cycle;Signal;HPM_P1;HPM_P2
2023/09/23 00:00:13;;;;;;;0.40;0.20;;;13.10;99.90;;;;;;5061059;28;20065;-64
2023/09/23 00:02:39;;;;;;;0.43;0.20;;;13.00;99.90;;;;;;4998135;28;20042;-64
2023/09/23 00:05:11;;;;;;;1.10;0.13;;;13.00;99.90;;;;;;5068397;28;20042;-64
2023/09/23 00:07:40;;;;;;;1.58;0.55;;;13.00;99.90;;;;;;5065525;28;20066;-64
2023/09/23 00:10:10;;;;;;;0.63;0.20;;;13.00;99.90;;;;;;4995681;28;20074;-64
2023/09/23 00:12:40;;;;;;;0.75;0.30;;;12.90;99.90;;;;;;5001322;28;20988;-64
2023/09/23 00:15:07;;;;;;;0.40;0.30;;;13.00;99.90;;;;;;5067855;28;20137;-64
2023/09/23 00:17:33;;;;;;;1.20;0.30;;;12.90;99.90;;;;;;5059804;28;20098;-64
2023/09/23 00:20:00;;;;;;;0.73;0.45;;;13.00;99.90;;;;;;4996576;28;20470;-64
2023/09/23 00:22:26;;;;;;;0.47;0.30;;;13.00;99.90;;;;;;5066763;28;20174;-64
2023/09/23 00:24:54;;;;;;;0.93;0.38;;;13.00;99.90;;;;;;5064993;28;20038;-64
2023/09/23 00:27:20;;;;;;;0.80;0.30;;;13.00;99.90;;;;;;4999948;28;20038;-64
2023/09/23 00:29:47;;;;;;;0.70;0.35;;;13.00;99.90;;;;;;5063891;28;20074;-64
2023/09/23 00:32:13;;;;;;;0.95;0.40;;;13.00;99.90;;;;;;5068041;28;20509;-64
2023/09/23 00:34:40;;;;;;;2.35;0.82;;;13.00;99.90;;;;;;4993884;28;20068;-64
2023/09/23 00:37:07;;;;;;;1.25;0.60;;;13.00;99.90;;;;;;5068837;28;20111;-64
2023/09/23 00:39:41;;;;;;;1.15;0.70;;;13.00;99.90;;;;;;5064323;28;20479;-64
2023/09/23 00:42:10;;;;;;;0.85;0.80;;;13.00;99.90;;;;;;5070088;28;20026;-64
2023/09/23 00:44:41;;;;;;;1.45;0.88;;;13.00;99.90;;;;;;5066643;28;20049;-64
2023/09/23 00:47:09;;;;;;;1.52;0.80;;;12.90;99.90;;;;;;4995904;28;20406;-64
2023/09/23 00:49:37;;;;;;;2.08;0.95;;;13.00;99.90;;;;;;5063035;28;20046;-64
2023/09/23 00:52:05;;;;;;;0.77;0.77;;;12.90;99.90;;;;;;4998101;28;20450;-64
2023/09/23 00:54:34;;;;;;;0.88;0.77;;;13.00;99.90;;;;;;5067009;28;20054;-64
2023/09/23 00:57:00;;;;;;;2.03;0.95;;;13.00;99.90;;;;;;5002665;28;20647;-64
2023/09/23 00:59:27;;;;;;;2.03;1.10;;;13.00;99.90;;;;;;5064495;28;20068;-64
2023/09/23 01:01:56;;;;;;;1.73;0.60;;;13.00;99.90;;;;;;4998932;28;22007;-64
2023/09/23 01:04:22;;;;;;;2.70;0.68;;;13.00;99.90;;;;;;5065023;28;20088;-64
2023/09/23 01:06:48;;;;;;;1.80;0.80;;;13.00;99.90;;;;;;5071513;28;20042;-64
2023/09/23 01:09:20;;;;;;;0.90;0.63;;;13.00;99.90;;;;;;5066785;28;20049;-64
2023/09/23 01:11:47;;;;;;;2.22;0.90;;;13.00;99.90;;;;;;5068558;28;20042;-64
2023/09/23 01:14:13;;;;;;;1.95;0.90;;;13.00;99.90;;;;;;5000621;28;20041;-64
2023/09/23 01:16:38;;;;;;;4.05;1.20;;;13.00;99.90;;;;;;5071963;28;20581;-64
2023/09/23 01:19:05;;;;;;;1.30;1.02;;;13.00;99.90;;;;;;5068487;28;20711;-64
2023/09/23 01:21:31;;;;;;;1.70;1.00;;;13.00;99.90;;;;;;5067280;28;20042;-64
2023/09/23 01:23:57;;;;;;;2.33;0.70;;;13.00;99.90;;;;;;5065711;28;20034;-64
2023/09/23 01:26:23;;;;;;;1.77;0.90;;;13.00;99.90;;;;;;5001561;28;20030;-64
2023/09/23 01:28:49;;;;;;;1.20;0.60;;;12.90;99.90;;;;;;5000134;28;20606;-64
2023/09/23 01:31:15;;;;;;;1.40;0.77;;;13.00;99.90;;;;;;5001022;28;20158;-64
2023/09/23 01:33:41;;;;;;;1.67;0.90;;;12.90;99.90;;;;;;5067908;28;20054;-64
2023/09/23 01:36:06;;;;;;;2.30;0.80;;;12.90;99.90;;;;;;5000308;28;20038;-64
2023/09/23 01:38:32;;;;;;;0.85;0.60;;;12.90;99.90;;;;;;5072388;28;20488;-64
2023/09/23 01:41:02;;;;;;;2.45;0.60;;;12.90;99.90;;;;;;5002384;28;20038;-64
2023/09/23 01:43:27;;;;;;;1.65;0.88;;;12.90;99.90;;;;;;5067952;28;20042;-64
2023/09/23 01:45:58;;;;;;;1.33;0.60;;;13.00;99.90;;;;;;4997584;28;20038;-64
2023/09/23 01:48:24;;;;;;;1.63;1.10;;;12.90;99.90;;;;;;5000424;28;20052;-64
2023/09/23 01:50:50;;;;;;;2.42;1.25;;;12.90;99.90;;;;;;5065252;28;20431;-64
2023/09/23 01:53:19;;;;;;;1.52;1.30;;;13.00;99.90;;;;;;4999183;28;20053;-64
2023/09/23 01:55:45;;;;;;;2.08;1.23;;;12.90;99.90;;;;;;4999379;28;20091;-64
2023/09/23 01:58:10;;;;;;;1.55;1.42;;;12.90;99.90;;;;;;5065051;28;20055;-64
2023/09/23 02:00:37;;;;;;;2.10;1.88;;;12.90;99.90;;;;;;5064093;28;20409;-64
2023/09/23 02:03:03;;;;;;;2.63;1.70;;;12.90;99.90;;;;;;4994985;28;20050;-64
2023/09/23 02:05:29;;;;;;;2.30;2.00;;;12.80;99.90;;;;;;5064533;28;20041;-64
2023/09/23 02:07:55;;;;;;;3.88;1.73;;;12.80;99.90;;;;;;5064785;28;20049;-64
2023/09/23 02:10:23;;;;;;;3.03;1.70;;;12.80;99.90;;;;;;4999192;28;20037;-64
2023/09/23 02:12:49;;;;;;;2.08;1.73;;;12.70;99.90;;;;;;5063905;28;20042;-64
2023/09/23 02:15:15;;;;;;;2.65;1.95;;;12.70;99.90;;;;;;4997138;28;20391;-64
2023/09/23 02:17:42;;;;;;;3.53;1.90;;;12.60;99.90;;;;;;5065211;28;20054;-64
2023/09/23 02:20:11;;;;;;;3.75;1.65;;;12.50;99.90;;;;;;5065631;28;20045;-64
2023/09/23 02:22:37;;;;;;;3.15;1.98;;;12.60;99.90;;;;;;5052526;28;20660;-64
2023/09/23 02:25:04;;;;;;;2.70;2.20;;;12.50;99.90;;;;;;5067481;28;20042;-64
2023/09/23 02:27:29;;;;;;;3.03;2.25;;;12.50;99.90;;;;;;5066752;28;20038;-64
2023/09/23 02:29:55;;;;;;;2.40;2.20;;;12.40;99.90;;;;;;5067390;28;20510;-64
2023/09/23 02:32:21;;;;;;;2.60;2.40;;;12.30;99.90;;;;;;5068744;28;20046;-64
2023/09/23 02:34:46;;;;;;;2.95;2.15;;;12.40;99.90;;;;;;4998185;28;20075;-64
2023/09/23 02:37:12;;;;;;;2.60;2.38;;;12.30;99.90;;;;;;5082023;27;20046;-64
2023/09/23 02:39:38;;;;;;;2.75;2.55;;;12.50;99.90;;;;;;5081688;28;20418;-64
2023/09/23 02:42:05;;;;;;;2.58;2.38;;;12.30;99.90;;;;;;5067342;28;20640;-64
2023/09/23 02:44:31;;;;;;;2.60;2.40;;;12.30;99.90;;;;;;5070554;28;20054;-64
2023/09/23 02:46:56;;;;;;;3.13;2.83;;;12.20;99.90;;;;;;5068076;28;20068;-64
2023/09/23 02:49:22;;;;;;;3.47;2.60;;;12.20;99.90;;;;;;4994887;28;20057;-64
2023/09/23 02:51:49;;;;;;;2.60;2.40;;;12.10;99.90;;;;;;5066084;28;20091;-64
2023/09/23 02:54:17;;;;;;;4.13;2.75;;;12.10;99.90;;;;;;4999155;28;21061;-64
2023/09/23 02:56:50;;;;;;;2.88;2.65;;;12.10;99.90;;;;;;5048795;28;20043;-64
2023/09/23 02:59:21;;;;;;;4.40;2.50;;;12.10;99.90;;;;;;5063092;28;20042;-64
2023/09/23 03:01:51;;;;;;;3.28;2.70;;;12.10;99.90;;;;;;4998921;28;20041;-64
2023/09/23 03:04:19;;;;;;;4.75;3.30;;;12.00;99.90;;;;;;5064931;28;20065;-64
2023/09/23 03:06:50;;;;;;;3.50;3.20;;;12.00;99.90;;;;;;4999912;28;20438;-64
2023/09/23 03:09:19;;;;;;;4.75;3.40;;;12.00;99.90;;;;;;5000517;28;20434;-64
2023/09/23 03:11:53;;;;;;;6.28;3.10;;;11.90;99.90;;;;;;5062306;28;20038;-64
2023/09/23 03:14:30;;;;;;;3.75;3.42;;;11.90;99.90;;;;;;5000499;28;20046;-64
2023/09/23 03:16:57;;;;;;;3.22;2.92;;;11.80;99.90;;;;;;4997688;28;20042;-64
2023/09/23 03:19:25;;;;;;;4.43;3.83;;;11.90;99.90;;;;;;5000494;28;20038;-64
2023/09/23 03:21:54;;;;;;;4.97;3.67;;;11.90;99.90;;;;;;4998804;28;20506;-64
2023/09/23 03:24:21;;;;;;;4.65;4.10;;;11.80;99.90;;;;;;4999497;28;20042;-64
2023/09/23 03:26:46;;;;;;;4.22;3.85;;;11.80;99.90;;;;;;5066943;28;20468;-64
2023/09/23 03:29:13;;;;;;;5.70;3.90;;;11.80;99.90;;;;;;5069592;28;20045;-64
2023/09/23 03:31:39;;;;;;;4.53;4.13;;;11.80;99.90;;;;;;5070217;28;20046;-64
2023/09/23 03:34:05;;;;;;;4.32;3.95;;;11.70;99.90;;;;;;5063505;28;20054;-64
2023/09/23 03:36:31;;;;;;;5.03;4.63;;;11.80;99.90;;;;;;5068349;28;20053;-64
2023/09/23 03:39:00;;;;;;;5.38;4.72;;;11.70;99.90;;;;;;4998814;28;20034;-64
2023/09/23 03:41:27;;;;;;;5.20;4.80;;;11.60;99.90;;;;;;5061865;28;20087;-64
2023/09/23 03:43:53;;;;;;;6.22;5.00;;;11.60;99.90;;;;;;4999485;28;20692;-64
2023/09/23 03:46:19;;;;;;;5.53;5.03;;;11.60;99.90;;;;;;4998670;28;20026;-64
2023/09/23 03:48:44;;;;;;;5.85;4.68;;;11.50;99.90;;;;;;5063499;28;20124;-64
2023/09/23 03:51:10;;;;;;;6.80;5.95;;;11.50;99.90;;;;;;5048247;28;20172;-64
2023/09/23 03:53:36;;;;;;;5.25;4.78;;;11.50;99.90;;;;;;5070024;28;20054;-64
2023/09/23 03:56:03;;;;;;;5.50;4.97;;;11.50;99.90;;;;;;5068070;28;20054;-64
2023/09/23 03:58:30;;;;;;;8.10;5.28;;;11.40;99.90;;;;;;4996532;28;20481;-64
2023/09/23 04:00:55;;;;;;;6.22;5.72;;;11.40;99.90;;;;;;4997456;28;20076;-64
2023/09/23 04:03:21;;;;;;;6.03;5.45;;;11.40;99.90;;;;;;5080552;28;20476;-64
2023/09/23 04:06:00;;;;;;;8.25;5.47;;;11.40;99.90;;;;;;5050475;28;20045;-64
2023/09/23 04:08:26;;;;;;;7.70;5.60;;;11.40;99.90;;;;;;5065224;28;20049;-64
2023/09/23 04:10:52;;;;;;;6.07;5.38;;;11.40;99.90;;;;;;5067917;28;20129;-63
2023/09/23 04:13:18;;;;;;;6.32;5.70;;;11.50;99.90;;;;;;5064448;28;20141;-64
2023/09/23 04:15:44;;;;;;;6.43;5.85;;;11.40;99.90;;;;;;5066434;28;20046;-64
2023/09/23 04:18:10;;;;;;;6.60;5.95;;;11.40;99.90;;;;;;5062376;28;21702;-64
2023/09/23 04:20:36;;;;;;;7.07;6.22;;;11.40;99.90;;;;;;4997506;28;20096;-64
2023/09/23 04:23:02;;;;;;;8.93;6.47;;;11.40;99.90;;;;;;5062340;28;20127;-64
2023/09/23 04:25:28;;;;;;;7.43;6.22;;;11.40;99.90;;;;;;5066235;28;20042;-64
2023/09/23 04:27:54;;;;;;;8.10;6.40;;;11.30;99.90;;;;;;5063379;28;20487;-64
2023/09/23 04:30:21;;;;;;;7.28;6.53;;;11.30;99.90;;;;;;4999714;28;20038;-64
2023/09/23 04:32:47;;;;;;;7.18;6.00;;;11.30;99.90;;;;;;4998058;28;20483;-64
2023/09/23 04:35:13;;;;;;;6.47;5.97;;;11.30;99.90;;;;;;5049742;28;20071;-64
2023/09/23 04:37:39;;;;;;;6.57;5.97;;;11.30;99.90;;;;;;4997013;28;20411;-64
2023/09/23 04:40:10;;;;;;;6.47;5.88;;;11.20;99.90;;;;;;5068895;28;20046;-64
2023/09/23 04:42:37;;;;;;;6.38;5.78;;;11.20;99.90;;;;;;4997159;28;20109;-64
2023/09/23 04:45:03;;;;;;;6.40;5.72;;;11.20;99.90;;;;;;4997024;28;20046;-64
2023/09/23 04:47:30;;;;;;;6.82;6.22;;;11.10;99.90;;;;;;5063375;28;20045;-64
2023/09/23 04:49:57;;;;;;;6.40;5.80;;;11.20;99.90;;;;;;5066864;28;20542;-64
2023/09/23 04:52:23;;;;;;;6.88;5.80;;;11.10;99.90;;;;;;4997770;28;20049;-64
2023/09/23 04:54:53;;;;;;;6.97;6.28;;;11.10;99.90;;;;;;5064677;28;20042;-64
2023/09/23 04:57:19;;;;;;;7.07;6.47;;;11.10;99.90;;;;;;4996418;28;20049;-64
2023/09/23 04:59:45;;;;;;;8.13;6.15;;;11.10;99.90;;;;;;4998619;28;20058;-64
2023/09/23 05:02:17;;;;;;;8.85;7.00;;;11.10;99.90;;;;;;4998312;28;20041;-64
2023/09/23 05:04:45;;;;;;;6.50;5.90;;;11.10;99.90;;;;;;4998498;28;20045;-63
2023/09/23 05:07:12;;;;;;;7.25;6.55;;;11.10;99.90;;;;;;4997133;28;20037;-64
2023/09/23 05:09:38;;;;;;;7.15;6.45;;;11.10;99.90;;;;;;5065841;28;20045;-64
2023/09/23 05:12:05;;;;;;;7.43;6.72;;;11.10;99.90;;;;;;5069692;28;20052;-64
2023/09/23 05:14:30;;;;;;;9.45;6.70;;;11.00;99.90;;;;;;5002155;28;20434;-64
2023/09/23 05:16:58;;;;;;;7.68;6.97;;;11.00;99.90;;;;;;5005412;28;20133;-64
2023/09/23 05:19:24;;;;;;;9.38;7.15;;;11.10;99.90;;;;;;5069530;28;20046;-64
2023/09/23 05:21:53;;;;;;;8.25;7.35;;;11.00;99.90;;;;;;5069467;28;20063;-64
2023/09/23 05:24:19;;;;;;;10.10;8.02;;;11.00;99.90;;;;;;5067135;28;20046;-64
2023/09/23 05:26:44;;;;;;;9.57;7.88;;;11.00;99.90;;;;;;5068224;28;20037;-64
2023/09/23 05:29:10;;;;;;;9.52;8.63;;;11.00;99.90;;;;;;4999332;28;20111;-64
2023/09/23 05:31:36;;;;;;;8.80;7.93;;;11.00;99.90;;;;;;5007257;28;20057;-64
2023/09/23 05:34:03;;;;;;;9.90;8.93;;;11.10;99.90;;;;;;5070369;28;20412;-64
2023/09/23 05:36:29;;;;;;;9.00;8.13;;;11.00;99.90;;;;;;5071404;28;20035;-64
2023/09/23 05:38:55;;;;;;;10.73;9.63;;;11.00;99.90;;;;;;4999953;28;20038;-64
2023/09/23 05:41:22;;;;;;;10.90;9.70;;;11.10;99.90;;;;;;5003634;28;20045;-64
2023/09/23 05:43:49;;;;;;;11.82;10.38;;;11.00;99.90;;;;;;5065551;28;20046;-64
2023/09/23 05:46:14;;;;;;;12.82;11.52;;;11.10;99.90;;;;;;5001466;28;20042;-64
2023/09/23 05:48:40;;;;;;;13.02;11.63;;;11.10;99.90;;;;;;5069495;28;20067;-63
2023/09/23 05:51:06;;;;;;;15.18;12.07;;;11.10;99.90;;;;;;5072110;28;20058;-64
2023/09/23 05:53:33;;;;;;;18.85;13.35;;;11.30;99.90;;;;;;5002648;28;20384;-64
2023/09/23 05:55:59;;;;;;;16.20;13.32;;;11.20;99.90;;;;;;5069685;28;20556;-63
2023/09/23 05:58:25;;;;;;;16.38;14.55;;;11.30;99.90;;;;;;5067874;28;20094;-63
2023/09/23 06:00:51;;;;;;;19.30;14.98;;;11.20;99.90;;;;;;5064698;28;20534;-63
2023/09/23 06:03:17;;;;;;;18.50;15.15;;;11.30;99.90;;;;;;5068799;28;20548;-64
2023/09/23 06:05:44;;;;;;;17.15;15.35;;;11.30;99.90;;;;;;5071290;28;20034;-64
2023/09/23 06:08:12;;;;;;;20.30;16.25;;;11.30;99.90;;;;;;5065348;28;20786;-64
2023/09/23 06:10:41;;;;;;;17.88;15.98;;;11.40;99.90;;;;;;5065966;28;20065;-63
2023/09/23 06:13:07;;;;;;;21.88;16.98;;;11.40;99.90;;;;;;4999707;28;20145;-63
2023/09/23 06:15:33;;;;;;;20.90;17.73;;;11.40;99.90;;;;;;5065698;28;20045;-64
2023/09/23 06:17:59;;;;;;;20.08;16.88;;;11.50;99.90;;;;;;5066368;28;20491;-64
2023/09/23 06:20:25;;;;;;;23.17;18.00;;;11.50;99.90;;;;;;4998664;28;20038;-64
2023/09/23 06:22:51;;;;;;;21.30;18.15;;;11.50;99.90;;;;;;5002685;28;20487;-64
2023/09/23 06:25:17;;;;;;;22.92;19.52;;;11.50;99.90;;;;;;5002766;28;20471;-64
2023/09/23 06:27:42;;;;;;;26.88;19.80;;;11.60;99.90;;;;;;5065886;28;20045;-64
2023/09/23 06:30:08;;;;;;;25.20;20.38;;;11.60;99.90;;;;;;4997978;28;20038;-64
2023/09/23 06:32:35;;;;;;;23.35;19.67;;;11.70;99.90;;;;;;5003181;28;20037;-64
2023/09/23 06:35:02;;;;;;;22.83;20.42;;;11.70;99.90;;;;;;5069098;28;20479;-64
2023/09/23 06:37:27;;;;;;;21.90;19.58;;;11.80;99.90;;;;;;5049684;28;20780;-64
2023/09/23 06:39:53;;;;;;;22.52;19.17;;;11.90;99.90;;;;;;4999507;28;20129;-64
2023/09/23 06:42:20;;;;;;;22.85;20.25;;;12.00;99.90;;;;;;5059973;28;20050;-64
2023/09/23 06:44:45;;;;;;;26.30;19.80;;;12.00;99.90;;;;;;5057186;28;20087;-64
2023/09/23 06:47:12;;;;;;;23.45;19.10;;;12.10;99.90;;;;;;5062282;28;20124;-64
2023/09/23 06:49:38;;;;;;;22.90;20.52;;;12.20;99.90;;;;;;4999491;28;20508;-64
2023/09/23 06:52:04;;;;;;;21.05;18.73;;;12.20;99.90;;;;;;5067865;28;20121;-64
2023/09/23 06:54:29;;;;;;;22.90;20.33;;;12.20;99.90;;;;;;5069057;28;20049;-64
2023/09/23 06:56:55;;;;;;;21.08;19.08;;;12.40;99.90;;;;;;5001684;28;20045;-64
2023/09/23 06:59:21;;;;;;;21.10;18.90;;;12.50;99.90;;;;;;5071985;28;20042;-64
2023/09/23 07:01:48;;;;;;;21.17;18.95;;;12.60;99.90;;;;;;5068353;28;20045;-64
2023/09/23 07:04:13;;;;;;;19.95;16.90;;;12.60;99.90;;;;;;5071316;28;20045;-64
2023/09/23 07:06:39;;;;;;;18.77;16.65;;;12.70;99.90;;;;;;5068830;28;20533;-64
2023/09/23 07:09:05;;;;;;;19.83;17.55;;;12.70;99.90;;;;;;5065497;28;20069;-64
2023/09/23 07:11:31;;;;;;;20.30;15.93;;;12.70;99.90;;;;;;5067949;28;20061;-64
2023/09/23 07:13:58;;;;;;;19.83;17.77;;;12.80;99.90;;;;;;5004804;28;20479;-64
2023/09/23 07:16:26;;;;;;;18.88;16.88;;;12.80;99.90;;;;;;5069077;28;20096;-64
2023/09/23 07:18:51;;;;;;;18.17;16.48;;;12.80;99.90;;;;;;5032137;28;20088;-64
2023/09/23 07:21:17;;;;;;;19.83;17.85;;;13.00;99.90;;;;;;5002377;28;20038;-64
2023/09/23 07:23:43;;;;;;;19.23;17.33;;;13.00;99.90;;;;;;5069790;28;20034;-64
2023/09/23 07:26:09;;;;;;;17.95;16.10;;;13.20;99.90;;;;;;5068886;28;20121;-64
2023/09/23 07:28:34;;;;;;;17.55;15.82;;;13.30;99.90;;;;;;5067987;28;20038;-64
2023/09/23 07:31:01;;;;;;;18.77;16.85;;;13.30;99.90;;;;;;5006797;28;20069;-64
2023/09/23 07:33:26;;;;;;;17.15;15.45;;;13.30;99.90;;;;;;5067475;28;20053;-64
2023/09/23 07:35:53;;;;;;;16.45;14.98;;;13.40;99.90;;;;;;5070200;28;20041;-64
2023/09/23 07:38:18;;;;;;;17.48;15.38;;;13.50;99.90;;;;;;5068350;28;20064;-64
2023/09/23 07:40:44;;;;;;;16.92;14.68;;;13.60;99.90;;;;;;5001589;28;20431;-64
2023/09/23 07:43:10;;;;;;;16.20;14.50;;;13.70;99.90;;;;;;5001617;28;20170;-64
2023/09/23 07:45:36;;;;;;;16.08;14.57;;;13.70;99.90;;;;;;5066685;28;20106;-64
2023/09/23 07:48:02;;;;;;;14.73;13.43;;;13.80;99.90;;;;;;5003779;28;20038;-64
2023/09/23 07:50:28;;;;;;;14.75;12.93;;;13.90;99.90;;;;;;5067143;28;20073;-64
2023/09/23 07:52:53;;;;;;;16.02;14.60;;;14.00;99.90;;;;;;5005008;28;20034;-64
2023/09/23 07:55:19;;;;;;;15.20;13.68;;;14.00;99.90;;;;;;5001601;28;20513;-64
2023/09/23 07:57:44;;;;;;;14.18;12.88;;;14.20;99.90;;;;;;5072841;28;20042;-64
2023/09/23 08:00:11;;;;;;;14.05;12.80;;;14.30;99.90;;;;;;5066912;28;20065;-64
2023/09/23 08:02:36;;;;;;;13.30;11.40;;;14.30;99.90;;;;;;5003376;28;20099;-64
2023/09/23 08:05:03;;;;;;;13.73;12.20;;;14.40;99.90;;;;;;5000402;28;20605;-64
2023/09/23 08:07:30;;;;;;;12.85;11.50;;;14.30;99.90;;;;;;5068536;28;20087;-64
2023/09/23 08:09:56;;;;;;;12.13;10.80;;;14.40;99.90;;;;;;5068041;28;20034;-64
2023/09/23 08:12:22;;;;;;;12.35;10.95;;;14.30;99.90;;;;;;5069859;28;20034;-64
2023/09/23 08:14:48;;;;;;;11.88;10.68;;;14.40;99.90;;;;;;5072572;28;20437;-64
2023/09/23 08:17:14;;;;;;;12.13;10.13;;;14.50;99.90;;;;;;5070600;28;20042;-64
2023/09/23 08:19:40;;;;;;;10.80;9.80;;;14.50;99.90;;;;;;5003611;28;20057;-64
2023/09/23 08:22:06;;;;;;;11.70;10.50;;;14.60;99.90;;;;;;5071282;28;20030;-64
2023/09/23 08:24:32;;;;;;;10.80;9.77;;;14.60;99.90;;;;;;5006365;28;20616;-64
2023/09/23 08:26:58;;;;;;;11.40;9.50;;;14.60;99.90;;;;;;5004987;28;20356;-64
2023/09/23 08:29:24;;;;;;;9.50;8.65;;;14.60;99.90;;;;;;5074531;28;20056;-64
2023/09/23 08:31:50;;;;;;;11.00;10.00;;;14.70;99.90;;;;;;5004247;28;20049;-64
2023/09/23 08:34:17;;;;;;;10.50;9.43;;;14.80;99.90;;;;;;5071338;28;20145;-64
2023/09/23 08:36:43;;;;;;;10.23;9.32;;;14.80;99.90;;;;;;5005735;28;20045;-64
2023/09/23 08:39:09;;;;;;;10.65;9.38;;;14.80;99.90;;;;;;5088460;28;20989;-64
2023/09/23 08:41:36;;;;;;;9.50;8.65;;;14.90;99.90;;;;;;5005412;28;20046;-64
2023/09/23 08:44:05;;;;;;;11.95;10.65;;;14.90;99.90;;;;;;5071218;28;20034;-64
2023/09/23 08:46:31;;;;;;;9.75;8.85;;;15.00;99.90;;;;;;5071177;28;20037;-64
2023/09/23 08:49:00;;;;;;;9.23;8.32;;;15.10;99.90;;;;;;5007221;28;20399;-64
2023/09/23 08:51:27;;;;;;;9.32;7.97;;;15.20;99.90;;;;;;5003861;28;20034;-64
2023/09/23 08:53:54;;;;;;;10.25;8.07;;;15.30;99.90;;;;;;5005567;28;20038;-64
2023/09/23 08:56:20;;;;;;;8.73;7.85;;;15.40;99.90;;;;;;5005835;28;20458;-64
2023/09/23 08:58:48;;;;;;;9.68;8.80;;;15.50;99.90;;;;;;5000468;28;20426;-64
2023/09/23 09:01:15;;;;;;;8.23;7.20;;;15.60;99.90;;;;;;5072461;28;20049;-64
2023/09/23 09:03:41;;;;;;;7.93;7.10;;;15.80;99.90;;;;;;5069048;28;20133;-64
2023/09/23 09:06:21;;;;;;;8.35;7.57;;;15.90;99.90;;;;;;5073004;28;20050;-64
2023/09/23 09:08:47;;;;;;;7.28;6.65;;;16.10;99.90;;;;;;5072578;28;20107;-64
2023/09/23 09:11:21;;;;;;;8.48;7.45;;;16.40;99.90;;;;;;5003516;28;20582;-64
2023/09/23 09:13:47;;;;;;;10.48;7.05;;;16.30;99.90;;;;;;5071360;28;20148;-64
2023/09/23 09:16:13;;;;;;;7.13;6.28;;;16.40;99.90;;;;;;5066912;28;20125;-64
2023/09/23 09:18:38;;;;;;;8.90;6.85;;;16.60;99.90;;;;;;5068937;28;20064;-64
2023/09/23 09:21:08;;;;;;;9.02;6.45;;;16.80;99.90;;;;;;5069592;28;20046;-64
2023/09/23 09:23:36;;;;;;;8.95;6.75;;;16.90;99.90;;;;;;5070224;28;20447;-64
2023/09/23 09:26:02;;;;;;;6.35;5.75;;;16.90;99.90;;;;;;5004494;28;20050;-64
2023/09/23 09:28:30;;;;;;;6.88;5.72;;;16.90;99.90;;;;;;5003389;28;20030;-64
2023/09/23 09:30:57;;;;;;;7.13;5.07;;;16.80;99.90;;;;;;5075738;28;20397;-64
2023/09/23 09:33:26;;;;;;;7.93;4.82;;;16.60;99.90;;;;;;5069088;28;20057;-64
2023/09/23 09:35:58;;;;;;;6.03;5.30;;;16.40;99.90;;;;;;5072642;28;20046;-64
2023/09/23 09:38:27;;;;;;;8.18;5.20;;;16.30;99.90;;;;;;5069035;28;20610;-64
2023/09/23 09:41:02;;;;;;;9.23;5.55;;;16.20;99.90;;;;;;5054397;28;20091;-64
2023/09/23 09:43:28;;;;;;;6.15;5.55;;;16.10;99.90;;;;;;5070813;28;20130;-64
2023/09/23 09:45:55;;;;;;;6.05;4.32;;;16.10;99.90;;;;;;5072136;28;20056;-64
2023/09/23 09:48:26;;;;;;;4.93;4.18;;;16.30;99.90;;;;;;5070532;28;20041;-64
2023/09/23 09:50:53;;;;;;;9.18;4.90;;;16.50;99.90;;;;;;5004807;28;20385;-64
2023/09/23 09:53:20;;;;;;;4.88;4.38;;;16.60;99.90;;;;;;5068416;28;20045;-64
2023/09/23 09:55:46;;;;;;;4.88;3.75;;;16.80;99.90;;;;;;5004544;28;20548;-64
2023/09/23 09:58:12;;;;;;;6.22;3.63;;;16.90;99.90;;;;;;5070799;28;20050;-64
2023/09/23 10:00:42;;;;;;;5.18;3.60;;;17.10;99.90;;;;;;5071740;28;20050;-64
2023/09/23 10:03:11;;;;;;;13.73;3.60;;;17.30;99.90;;;;;;5070155;28;20046;-64
2023/09/23 10:05:50;;;;;;;8.30;3.28;;;17.60;99.90;;;;;;5070963;28;20436;-64
2023/09/23 10:08:24;;;;;;;9.00;2.65;;;17.90;99.90;;;;;;5003854;28;20045;-64
2023/09/23 10:10:57;;;;;;;3.97;2.55;;;18.10;99.90;;;;;;5053107;28;20038;-64
2023/09/23 10:13:23;;;;;;;5.20;2.28;;;18.20;99.90;;;;;;5068425;28;20057;-64
2023/09/23 10:15:50;;;;;;;7.80;2.72;;;18.20;99.90;;;;;;5069602;28;20054;-64
2023/09/23 10:18:19;;;;;;;7.88;2.40;;;18.10;99.90;;;;;;5073801;28;20378;-64
2023/09/23 10:20:50;;;;;;;3.10;1.80;;;18.20;99.90;;;;;;5070989;28;20046;-64
2023/09/23 10:23:18;;;;;;;4.82;2.20;;;18.10;99.90;;;;;;5071199;28;20056;-65
2023/09/23 10:25:44;;;;;;;4.20;2.17;;;18.30;99.90;;;;;;5074986;28;20038;-65
2023/09/23 10:28:30;;;;;;;3.20;1.65;;;18.50;99.90;;;;;;5073605;28;20038;-65
2023/09/23 10:31:04;;;;;;;3.78;1.60;;;18.60;99.90;;;;;;5069810;28;20048;-65
2023/09/23 10:33:32;;;;;;;5.20;1.45;;;18.50;99.90;;;;;;5070063;28;20124;-65
2023/09/23 10:35:58;;;;;;;5.43;1.75;;;18.50;99.90;;;;;;5070115;28;20112;-65
2023/09/23 10:38:26;;;;;;;4.07;1.65;;;18.40;99.90;;;;;;5070146;28;20037;-65
2023/09/23 10:40:53;;;;;;;2.88;1.40;;;18.30;99.90;;;;;;5069783;28;20060;-65
2023/09/23 10:43:21;;;;;;;2.63;0.93;;;18.10;99.90;;;;;;5000785;28;20042;-64
2023/09/23 10:45:53;;;;;;;3.90;1.13;;;18.00;99.90;;;;;;5003361;28;20521;-64
2023/09/23 10:48:19;;;;;;;2.20;0.80;;;17.90;99.90;;;;;;5000733;28;20046;-64
2023/09/23 10:50:45;;;;;;;5.97;1.98;;;17.80;99.90;;;;;;5070600;28;20055;-64
2023/09/23 10:53:11;;;;;;;3.63;1.10;;;17.70;99.90;;;;;;5067469;28;20515;-64
2023/09/23 10:55:39;;;;;;;5.97;1.55;;;17.70;99.90;;;;;;5071751;28;20114;-64
2023/09/23 10:58:06;;;;;;;3.80;1.10;;;17.60;99.90;;;;;;5069951;28;20050;-64
2023/09/23 11:00:33;;;;;;;2.70;1.10;;;17.60;99.90;;;;;;5070095;28;20078;-64
2023/09/23 11:03:09;;;;;;;4.22;1.80;;;17.60;99.90;;;;;;5070705;28;20054;-64
2023/09/23 11:05:39;;;;;;;2.65;0.77;;;17.60;99.90;;;;;;5070607;28;20052;-64
2023/09/23 11:08:10;;;;;;;4.25;0.98;;;17.60;99.90;;;;;;5002236;28;20042;-64
2023/09/23 11:10:38;;;;;;;3.67;1.10;;;17.70;99.90;;;;;;5067405;28;20087;-65
2023/09/23 11:13:11;;;;;;;6.47;1.13;;;17.70;99.90;;;;;;5072161;28;20124;-65
2023/09/23 11:15:38;;;;;;;4.07;1.20;;;17.70;99.90;;;;;;5068599;28;20042;-65
2023/09/23 11:18:08;;;;;;;4.88;1.17;;;17.60;99.90;;;;;;5068476;28;20105;-65
2023/09/23 11:20:35;;;;;;;5.07;1.35;;;17.60;99.90;;;;;;5066461;28;20058;-65
2023/09/23 11:23:05;;;;;;;1.30;0.75;;;17.50;99.90;;;;;;5069685;28;20049;-65
2023/09/23 11:25:34;;;;;;;6.50;1.23;;;17.60;99.90;;;;;;5067384;28;20045;-64
2023/09/23 11:28:00;;;;;;;2.53;0.70;;;17.70;99.90;;;;;;5068215;28;20038;-65
2023/09/23 11:30:26;;;;;;;4.30;1.20;;;17.70;99.90;;;;;;5000676;28;20037;-65
2023/09/23 11:32:53;;;;;;;5.43;0.93;;;17.60;99.90;;;;;;5068859;28;20044;-65
2023/09/23 11:35:20;;;;;;;3.88;1.35;;;17.60;99.90;;;;;;5002143;28;20077;-65
2023/09/23 11:37:46;;;;;;;4.13;1.20;;;17.80;99.90;;;;;;5070152;28;20099;-65
2023/09/23 11:40:12;;;;;;;3.80;1.50;;;17.90;99.90;;;;;;5051478;28;20093;-65
2023/09/23 11:42:38;;;;;;;4.03;1.15;;;18.20;99.90;;;;;;5067973;28;20062;-65
2023/09/23 11:45:04;;;;;;;2.97;0.80;;;18.50;99.90;;;;;;5006815;28;20053;-65
2023/09/23 11:47:30;;;;;;;4.47;0.70;;;18.60;99.90;;;;;;5006361;28;20069;-65
2023/09/23 11:49:56;;;;;;;4.40;1.05;;;18.80;99.90;;;;;;5068507;28;20099;-65
2023/09/23 11:52:21;;;;;;;3.15;0.60;;;19.00;99.90;;;;;;5003285;28;20491;-65
2023/09/23 11:54:47;;;;;;;2.92;0.90;;;19.20;99.90;;;;;;5068449;28;20485;-65
2023/09/23 11:57:13;;;;;;;3.47;0.88;;;19.20;99.90;;;;;;5066562;28;20038;-65
2023/09/23 11:59:40;;;;;;;4.28;0.55;;;19.20;99.90;;;;;;5070030;28;20042;-65
2023/09/23 12:02:05;;;;;;;2.70;0.47;;;19.20;99.90;;;;;;5069588;28;20042;-65
2023/09/23 12:04:31;;;;;;;2.13;0.70;;;19.20;99.90;;;;;;5072239;28;20760;-65
2023/09/23 12:06:57;;;;;;;1.45;0.55;;;18.90;99.90;;;;;;5070104;28;20502;-65
2023/09/23 12:09:24;;;;;;;2.40;0.50;;;18.90;99.90;;;;;;5053194;28;20133;-65
2023/09/23 12:11:51;;;;;;;3.75;0.70;;;18.80;99.90;;;;;;5069757;28;20054;-65
2023/09/23 12:14:19;;;;;;;3.80;0.82;;;18.60;99.90;;;;;;5067375;28;20038;-65
2023/09/23 12:16:45;;;;;;;1.85;0.65;;;18.40;99.90;;;;;;5002963;28;20046;-65
2023/09/23 12:19:11;;;;;;;4.03;0.80;;;18.40;99.90;;;;;;5068429;28;20042;-65
2023/09/23 12:21:36;;;;;;;5.28;0.70;;;18.20;99.90;;;;;;5069991;28;20095;-65
2023/09/23 12:24:03;;;;;;;9.70;1.33;;;17.80;99.90;;;;;;5065317;28;20129;-65
2023/09/23 12:26:31;;;;;;;10.13;1.67;;;17.60;99.90;;;;;;5000556;28;20064;-65
2023/09/23 12:28:56;;;;;;;3.42;1.23;;;17.40;99.90;;;;;;5063216;28;20045;-65
2023/09/23 12:31:24;;;;;;;3.92;1.55;;;17.20;99.90;;;;;;5061896;28;20046;-65
2023/09/23 12:33:50;;;;;;;4.90;0.90;;;17.20;99.90;;;;;;5065531;28;20167;-64
2023/09/23 12:36:16;;;;;;;7.30;1.10;;;17.30;99.90;;;;;;5000647;28;20501;-64
2023/09/23 12:38:42;;;;;;;1.90;0.75;;;17.50;99.90;;;;;;5067610;28;20050;-64
2023/09/23 12:41:08;;;;;;;2.47;0.73;;;17.70;99.90;;;;;;5001805;28;20041;-64